Time;durP1;ratioP1;P1;durP2;ratioP2;P2;SDS_P1;SDS_P2;PMS_P1;PMS_P2;Temp;Humidity;BMP_temperature;BMP_pressure;BME280_temperature;BME280_humidity;BME280_pressure;Samples;Min_cycle;Max_cycle;Signal;HPM_P1;HPM_P2
2021/06/20 00:01:17;;;;;;;0.52;0.30;;;17.00;79.60;;;;;;5019181;28;20033;-78
2021/06/20 00:03:43;;;;;;;0.50;0.30;;;17.10;79.50;;;;;;5017991;28;20026;-78
2021/06/20 00:06:31;;;;;;;0.20;0.20;;;17.20;79.20;;;;;;5017714;28;20038;-78
2021/06/20 00:08:58;;;;;;;0.22;0.20;;;17.30;78.40;;;;;;5017937;28;20092;-78
2021/06/20 00:11:25;;;;;;;0.47;0.30;;;17.30;78.40;;;;;;5018151;28;20116;-78
2021/06/20 00:13:51;;;;;;;0.60;0.30;;;17.40;78.10;;;;;;5017158;28;20026;-78
2021/06/20 00:16:17;;;;;;;0.35;0.20;;;17.40;77.80;;;;;;5017949;28;20071;-78
2021/06/20 00:18:44;;;;;;;0.38;0.20;;;17.50;77.90;;;;;;5016174;28;20038;-79
2021/06/20 00:21:10;;;;;;;0.45;0.28;;;17.60;77.50;;;;;;5017924;28;20172;-79
2021/06/20 00:23:36;;;;;;;0.30;0.20;;;17.60;77.40;;;;;;5024290;28;20068;-79
2021/06/20 00:26:02;;;;;;;0.28;0.20;;;17.60;77.30;;;;;;5017865;28;20169;-79
2021/06/20 00:28:28;;;;;;;0.30;0.20;;;17.60;77.50;;;;;;5017688;28;20045;-79
2021/06/20 00:30:54;;;;;;;0.60;0.20;;;17.70;77.10;;;;;;5017767;28;20026;-78
2021/06/20 00:33:19;;;;;;;0.25;0.20;;;17.50;77.20;;;;;;5039433;28;20037;-79
2021/06/20 00:35:45;;;;;;;0.40;0.28;;;17.60;77.40;;;;;;5016249;28;20480;-79
2021/06/20 00:38:11;;;;;;;0.30;0.22;;;17.60;77.30;;;;;;5017557;28;20125;-78
2021/06/20 00:40:37;;;;;;;0.28;0.20;;;17.60;77.30;;;;;;5017247;28;20044;-79
2021/06/20 00:43:02;;;;;;;0.30;0.20;;;17.50;77.40;;;;;;5017845;28;20030;-78
2021/06/20 00:45:28;;;;;;;0.30;0.20;;;17.50;77.70;;;;;;5017431;28;20061;-79
2021/06/20 00:47:55;;;;;;;0.20;0.20;;;17.50;77.50;;;;;;5017469;28;20503;-78
2021/06/20 00:50:21;;;;;;;0.20;0.20;;;17.50;77.40;;;;;;5015905;28;20030;-79
2021/06/20 00:52:48;;;;;;;0.40;0.20;;;17.40;77.30;;;;;;5016350;28;20045;-79
2021/06/20 00:55:14;;;;;;;0.50;0.30;;;17.30;77.30;;;;;;5017193;28;20037;-79
2021/06/20 00:57:41;;;;;;;0.40;0.30;;;17.30;77.50;;;;;;5032682;28;20034;-79
2021/06/20 01:00:09;;;;;;;0.22;0.20;;;17.30;77.50;;;;;;5032191;28;20515;-79
2021/06/20 01:02:36;;;;;;;0.30;0.30;;;17.30;77.50;;;;;;5024209;28;20089;-79
2021/06/20 01:05:07;;;;;;;0.50;0.22;;;17.30;77.50;;;;;;5015641;28;20030;-79
2021/06/20 01:07:33;;;;;;;0.20;0.20;;;17.20;77.80;;;;;;5016962;28;20045;-79
2021/06/20 01:09:59;;;;;;;0.45;0.20;;;17.00;78.60;;;;;;5016639;28;20030;-79
2021/06/20 01:12:25;;;;;;;0.40;0.20;;;17.00;78.50;;;;;;5016999;28;20036;-79
2021/06/20 01:14:51;;;;;;;0.30;0.30;;;16.90;78.60;;;;;;5016799;28;20052;-78
2021/06/20 01:17:18;;;;;;;0.30;0.20;;;16.90;78.70;;;;;;5016920;28;20400;-78
2021/06/20 01:19:44;;;;;;;0.25;0.20;;;16.80;79.20;;;;;;5016463;28;20034;-79
2021/06/20 01:22:26;;;;;;;0.50;0.30;;;16.80;78.90;;;;;;5015422;28;20018;-78
2021/06/20 01:24:58;;;;;;;0.20;0.20;;;16.80;78.90;;;;;;5033880;28;20025;-79
2021/06/20 01:27:37;;;;;;;0.47;0.30;;;16.80;79.00;;;;;;5017009;28;20030;-79
2021/06/20 01:30:04;;;;;;;0.40;0.30;;;16.90;78.80;;;;;;5016669;28;20079;-79
2021/06/20 01:32:31;;;;;;;0.20;0.20;;;17.00;78.50;;;;;;5027798;28;20175;-78
2021/06/20 01:34:57;;;;;;;0.20;0.20;;;17.10;78.30;;;;;;5034943;28;20935;-78
2021/06/20 01:37:24;;;;;;;0.40;0.30;;;17.10;78.30;;;;;;5031470;28;20095;-78
2021/06/20 01:39:50;;;;;;;0.40;0.30;;;17.00;78.40;;;;;;5016365;28;20388;-79
2021/06/20 01:42:17;;;;;;;0.52;0.35;;;17.10;78.20;;;;;;5015576;28;20038;-79
2021/06/20 01:45:09;;;;;;;0.35;0.20;;;17.10;78.20;;;;;;5015166;28;20583;-80
2021/06/20 01:47:36;;;;;;;0.38;0.30;;;17.10;78.00;;;;;;5015012;28;20125;-79
2021/06/20 01:50:15;;;;;;;;;;;;;;;;;;;;;
2021/06/20 01:52:41;;;;;;;0.68;0.20;;;16.90;78.20;;;;;;5016564;28;20028;-78
2021/06/20 01:55:10;;;;;;;0.30;0.20;;;16.90;78.20;;;;;;5014701;28;20045;-79
2021/06/20 01:57:38;;;;;;;0.50;0.30;;;16.80;78.40;;;;;;5016295;28;20084;-78
2021/06/20 02:00:16;;;;;;;0.60;0.30;;;16.80;78.50;;;;;;5030713;28;20033;-78
2021/06/20 02:02:43;;;;;;;0.47;0.30;;;16.70;78.70;;;;;;5032986;28;20030;-79
2021/06/20 02:05:10;;;;;;;0.40;0.22;;;16.70;78.80;;;;;;5015814;28;20018;-78
2021/06/20 02:07:39;;;;;;;0.30;0.30;;;16.70;78.70;;;;;;5016311;28;20519;-78
2021/06/20 02:10:10;;;;;;;0.35;0.30;;;16.70;78.90;;;;;;5030977;28;20030;-79
2021/06/20 02:12:36;;;;;;;0.30;0.20;;;16.60;79.30;;;;;;5030935;28;20034;-79
2021/06/20 02:15:03;;;;;;;0.40;0.30;;;16.50;79.20;;;;;;5015792;28;20093;-79
2021/06/20 02:17:31;;;;;;;0.40;0.22;;;16.60;79.30;;;;;;5015830;28;20207;-79
2021/06/20 02:20:04;;;;;;;0.50;0.30;;;16.50;79.50;;;;;;5015398;28;20061;-79
2021/06/20 02:22:31;;;;;;;0.77;0.28;;;16.50;79.60;;;;;;5014509;28;20061;-79
2021/06/20 02:24:57;;;;;;;0.90;0.40;;;16.50;79.60;;;;;;5033890;28;20442;-78
2021/06/20 02:27:23;;;;;;;1.02;0.30;;;16.40;80.00;;;;;;5034130;28;20056;-79
2021/06/20 02:29:52;;;;;;;0.40;0.30;;;16.30;80.30;;;;;;5014233;28;20064;-78
2021/06/20 02:32:19;;;;;;;0.38;0.20;;;16.30;80.50;;;;;;5037047;28;20025;-78
2021/06/20 02:34:46;;;;;;;0.32;0.25;;;16.20;81.00;;;;;;5055292;28;20429;-79
2021/06/20 02:37:12;;;;;;;0.32;0.20;;;16.20;80.90;;;;;;5015318;28;20304;-78
2021/06/20 02:39:39;;;;;;;0.35;0.30;;;16.30;80.80;;;;;;5015179;28;20502;-78
2021/06/20 02:42:06;;;;;;;0.40;0.30;;;16.20;81.00;;;;;;5015665;28;20038;-79
2021/06/20 02:44:32;;;;;;;0.55;0.30;;;16.20;80.90;;;;;;5015464;28;20015;-79
2021/06/20 02:47:06;;;;;;;0.50;0.40;;;16.30;80.70;;;;;;5015227;28;20405;-78
2021/06/20 02:49:32;;;;;;;0.47;0.30;;;16.20;81.20;;;;;;5013964;28;20104;-79
2021/06/20 02:51:59;;;;;;;0.57;0.30;;;16.20;81.30;;;;;;5014394;28;20026;-78
2021/06/20 02:54:24;;;;;;;0.38;0.30;;;16.20;81.50;;;;;;5014397;28;20036;-78
2021/06/20 02:56:51;;;;;;;0.30;0.30;;;16.10;81.70;;;;;;5015414;28;20093;-79
2021/06/20 02:59:16;;;;;;;0.50;0.30;;;16.20;81.60;;;;;;5023676;28;20395;-78
2021/06/20 03:01:42;;;;;;;0.35;0.30;;;16.20;81.40;;;;;;5025854;28;20113;-79
2021/06/20 03:04:18;;;;;;;;;;;;;;;;;;;;;
2021/06/20 03:06:44;;;;;;;0.40;0.30;;;16.30;81.10;;;;;;5014985;28;20053;-79
2021/06/20 03:09:10;;;;;;;0.40;0.30;;;16.20;81.20;;;;;;5013930;28;20054;-78
2021/06/20 03:11:41;;;;;;;0.40;0.30;;;16.20;81.10;;;;;;5013935;28;20040;-79
2021/06/20 03:14:16;;;;;;;0.57;0.30;;;16.20;81.10;;;;;;5014159;28;20117;-79
2021/06/20 03:16:43;;;;;;;0.60;0.35;;;16.20;81.10;;;;;;5015166;28;20030;-79
2021/06/20 03:19:09;;;;;;;0.50;0.30;;;16.10;81.30;;;;;;5013604;28;20064;-79
2021/06/20 03:21:35;;;;;;;0.80;0.40;;;16.10;81.20;;;;;;5014756;28;20527;-79
2021/06/20 03:24:01;;;;;;;0.38;0.30;;;16.10;81.20;;;;;;5025521;28;20025;-79
2021/06/20 03:26:27;;;;;;;0.77;0.40;;;16.20;80.70;;;;;;5034833;28;20025;-79
2021/06/20 03:28:54;;;;;;;0.35;0.30;;;16.10;81.20;;;;;;5032344;28;20103;-78
2021/06/20 03:31:19;;;;;;;0.60;0.30;;;16.10;81.30;;;;;;5020577;28;20042;-79
2021/06/20 03:33:46;;;;;;;0.43;0.30;;;16.10;81.10;;;;;;5054433;28;20024;-79
2021/06/20 03:36:12;;;;;;;0.38;0.30;;;16.10;81.10;;;;;;5054610;28;20029;-79
2021/06/20 03:38:40;;;;;;;0.57;0.38;;;16.00;81.60;;;;;;5039300;28;20076;-78
2021/06/20 03:41:08;;;;;;;0.28;0.20;;;16.00;81.50;;;;;;5014965;28;20030;-78
2021/06/20 03:43:34;;;;;;;1.35;0.40;;;16.00;81.40;;;;;;5014606;28;20029;-79
2021/06/20 03:46:00;;;;;;;0.93;0.40;;;16.00;81.50;;;;;;5013725;28;20026;-79
2021/06/20 03:48:25;;;;;;;0.30;0.20;;;16.00;81.50;;;;;;5015024;28;20077;-78
2021/06/20 03:50:51;;;;;;;0.70;0.35;;;16.00;81.40;;;;;;5016319;28;20069;-78
2021/06/20 03:53:17;;;;;;;0.35;0.30;;;16.20;81.10;;;;;;5018883;28;20033;-78
2021/06/20 03:55:42;;;;;;;0.35;0.30;;;16.20;80.80;;;;;;5018456;28;20093;-79
2021/06/20 03:58:08;;;;;;;0.47;0.38;;;16.20;80.70;;;;;;5018091;28;20070;-79
2021/06/20 04:00:34;;;;;;;0.50;0.30;;;16.30;80.40;;;;;;5035042;28;20040;-78
2021/06/20 04:03:02;;;;;;;0.40;0.30;;;16.30;80.40;;;;;;5018253;28;20089;-79
2021/06/20 04:05:27;;;;;;;0.55;0.30;;;16.30;80.20;;;;;;5016837;28;20080;-79
2021/06/20 04:07:53;;;;;;;0.50;0.35;;;16.30;80.10;;;;;;5017928;28;20050;-79
2021/06/20 04:10:19;;;;;;;0.50;0.30;;;16.30;80.30;;;;;;5018262;28;20038;-79
2021/06/20 04:12:45;;;;;;;0.52;0.40;;;16.30;80.60;;;;;;5018210;28;20026;-78
2021/06/20 04:15:11;;;;;;;0.60;0.40;;;16.30;80.50;;;;;;5022488;28;20033;-79
2021/06/20 04:17:36;;;;;;;0.50;0.30;;;16.30;80.40;;;;;;5017848;28;20025;-79
2021/06/20 04:20:07;;;;;;;0.40;0.30;;;16.30;80.20;;;;;;5017850;28;20115;-79
2021/06/20 04:22:34;;;;;;;0.30;0.30;;;16.30;80.60;;;;;;5021941;28;20018;-79
2021/06/20 04:24:59;;;;;;;0.70;0.40;;;16.30;80.70;;;;;;5039794;28;20147;-79
2021/06/20 04:27:25;;;;;;;0.65;0.38;;;16.30;81.00;;;;;;5037586;28;20427;-79
2021/06/20 04:29:51;;;;;;;0.30;0.30;;;16.30;81.20;;;;;;5053730;28;20403;-79
2021/06/20 04:32:17;;;;;;;0.52;0.40;;;16.20;81.20;;;;;;5051358;28;20026;-78
2021/06/20 04:34:43;;;;;;;0.50;0.40;;;16.30;81.00;;;;;;5037426;28;20029;-79
2021/06/20 04:37:08;;;;;;;0.40;0.30;;;16.30;81.00;;;;;;5036356;28;20029;-79
2021/06/20 04:39:34;;;;;;;0.50;0.30;;;16.40;80.70;;;;;;5021466;28;20034;-79
2021/06/20 04:42:00;;;;;;;0.40;0.30;;;16.50;80.10;;;;;;5049124;28;20033;-79
2021/06/20 04:44:45;;;;;;;0.43;0.30;;;16.50;80.40;;;;;;5041491;28;20022;-78
2021/06/20 04:47:14;;;;;;;0.50;0.30;;;16.50;80.80;;;;;;5016057;28;20026;-78
2021/06/20 04:49:40;;;;;;;0.73;0.40;;;16.50;80.60;;;;;;5015722;28;20021;-79
2021/06/20 04:52:07;;;;;;;0.47;0.38;;;16.60;80.30;;;;;;5017399;28;20106;-79
2021/06/20 04:54:35;;;;;;;0.57;0.40;;;16.50;80.40;;;;;;5017293;28;20084;-79
2021/06/20 04:57:02;;;;;;;0.85;0.38;;;16.50;80.30;;;;;;5017047;28;20033;-79
2021/06/20 04:59:28;;;;;;;0.38;0.30;;;16.50;80.40;;;;;;5027301;28;20021;-79
2021/06/20 05:01:54;;;;;;;0.68;0.40;;;16.50;80.70;;;;;;5035241;28;20084;-79
2021/06/20 05:04:19;;;;;;;0.80;0.35;;;16.60;80.10;;;;;;5035706;28;20051;-79
2021/06/20 05:06:45;;;;;;;0.70;0.40;;;16.60;80.30;;;;;;5027669;28;20569;-79
2021/06/20 05:09:10;;;;;;;0.40;0.30;;;16.70;80.10;;;;;;5017067;28;20504;-79
2021/06/20 05:11:36;;;;;;;0.60;0.32;;;16.80;80.00;;;;;;5016668;28;20037;-79
2021/06/20 05:14:02;;;;;;;0.30;0.28;;;16.80;80.10;;;;;;5016945;28;20057;-79
2021/06/20 05:16:28;;;;;;;0.65;0.40;;;16.80;80.00;;;;;;5020998;28;20031;-79
2021/06/20 05:18:53;;;;;;;0.60;0.30;;;16.70;80.20;;;;;;5033900;28;20021;-78
2021/06/20 05:21:19;;;;;;;0.88;0.30;;;16.60;80.50;;;;;;5035400;28;20085;-78
2021/06/20 05:23:46;;;;;;;0.55;0.35;;;16.70;80.40;;;;;;5034012;28;20390;-78
2021/06/20 05:26:11;;;;;;;0.43;0.30;;;16.70;80.20;;;;;;5035530;28;20026;-78
2021/06/20 05:28:37;;;;;;;0.63;0.30;;;16.80;79.80;;;;;;5015727;28;20033;-78
2021/06/20 05:31:03;;;;;;;0.60;0.40;;;16.80;80.00;;;;;;5014813;28;20115;-78
2021/06/20 05:33:28;;;;;;;0.80;0.40;;;16.90;80.00;;;;;;5023430;28;20030;-78
2021/06/20 05:35:54;;;;;;;0.38;0.30;;;17.00;79.90;;;;;;5015849;28;20033;-78
2021/06/20 05:38:20;;;;;;;0.68;0.30;;;17.20;79.80;;;;;;5016140;28;20029;-78
2021/06/20 05:40:45;;;;;;;0.73;0.20;;;17.20;79.40;;;;;;5015873;28;20040;-78
2021/06/20 05:43:12;;;;;;;0.70;0.30;;;17.20;79.30;;;;;;5015894;28;20025;-78
2021/06/20 05:45:37;;;;;;;0.55;0.40;;;17.30;79.40;;;;;;5027255;28;20377;-78
2021/06/20 05:48:03;;;;;;;0.35;0.30;;;17.30;79.30;;;;;;5014896;28;20044;-79
2021/06/20 05:50:29;;;;;;;0.70;0.32;;;17.30;79.20;;;;;;5015749;28;20400;-78
2021/06/20 05:52:55;;;;;;;0.60;0.30;;;17.40;79.30;;;;;;5015963;28;20025;-78
2021/06/20 05:55:22;;;;;;;0.40;0.30;;;17.50;79.30;;;;;;5015107;28;20030;-79
2021/06/20 05:57:48;;;;;;;0.90;0.40;;;17.40;79.30;;;;;;5015111;28;20129;-78
2021/06/20 06:00:14;;;;;;;0.35;0.28;;;17.50;79.10;;;;;;5030276;28;20064;-79
2021/06/20 06:02:40;;;;;;;0.30;0.20;;;17.50;79.40;;;;;;5019375;28;20049;-78
2021/06/20 06:05:08;;;;;;;0.70;0.40;;;17.50;79.10;;;;;;5017645;28;20480;-77
2021/06/20 06:07:34;;;;;;;0.30;0.20;;;17.50;79.20;;;;;;5034284;28;20522;-78
2021/06/20 06:10:00;;;;;;;0.68;0.35;;;17.40;79.40;;;;;;5032863;28;20091;-78
2021/06/20 06:12:26;;;;;;;0.68;0.30;;;17.40;79.40;;;;;;5032403;28;20022;-78
2021/06/20 06:14:53;;;;;;;0.70;0.40;;;17.30;79.50;;;;;;5032825;28;20035;-78
2021/06/20 06:17:23;;;;;;;0.40;0.20;;;17.40;79.60;;;;;;5038838;28;20021;-73
2021/06/20 06:19:50;;;;;;;0.50;0.30;;;17.20;79.90;;;;;;5034575;28;20033;-76
2021/06/20 06:22:17;;;;;;;0.52;0.30;;;17.30;80.00;;;;;;5030756;28;20058;-75
2021/06/20 06:24:44;;;;;;;0.50;0.30;;;17.30;79.90;;;;;;5034267;28;20029;-75
2021/06/20 06:27:10;;;;;;;0.60;0.30;;;17.40;79.80;;;;;;5035252;28;20029;-74
2021/06/20 06:29:36;;;;;;;0.50;0.30;;;17.50;79.70;;;;;;5023192;28;20033;-75
2021/06/20 06:32:02;;;;;;;0.82;0.30;;;17.50;79.70;;;;;;5015948;28;20085;-74
2021/06/20 06:34:28;;;;;;;0.63;0.28;;;17.70;79.20;;;;;;5015024;28;20077;-74
2021/06/20 06:36:54;;;;;;;0.43;0.20;;;17.70;78.90;;;;;;5015638;28;20038;-75
2021/06/20 06:39:20;;;;;;;0.32;0.25;;;17.80;78.40;;;;;;5024536;28;20111;-74
2021/06/20 06:41:46;;;;;;;0.60;0.30;;;17.80;78.70;;;;;;5030738;28;20057;-74
2021/06/20 06:44:12;;;;;;;1.08;0.30;;;17.90;78.70;;;;;;5013803;28;20041;-75
2021/06/20 06:46:37;;;;;;;0.73;0.30;;;18.00;78.60;;;;;;5014939;28;20025;-73
2021/06/20 06:49:03;;;;;;;0.45;0.28;;;17.90;77.90;;;;;;5014006;28;20112;-74
2021/06/20 06:51:29;;;;;;;0.30;0.20;;;18.00;78.10;;;;;;5015005;28;20135;-74
2021/06/20 06:53:55;;;;;;;0.60;0.30;;;18.20;77.60;;;;;;5013304;28;20137;-74
2021/06/20 06:56:21;;;;;;;0.45;0.28;;;18.20;77.50;;;;;;5017454;28;20022;-73
2021/06/20 06:58:47;;;;;;;0.65;0.30;;;18.10;77.60;;;;;;5030700;28;20053;-73
2021/06/20 07:01:13;;;;;;;0.47;0.30;;;18.10;78.20;;;;;;5029164;28;20032;-73
2021/06/20 07:03:38;;;;;;;0.40;0.22;;;18.10;77.90;;;;;;5052723;28;20087;-74
2021/06/20 07:06:04;;;;;;;0.40;0.30;;;18.10;77.40;;;;;;5044478;28;20099;-74
2021/06/20 07:08:30;;;;;;;0.30;0.20;;;18.10;78.00;;;;;;5027632;28;20033;-74
2021/06/20 07:10:55;;;;;;;0.40;0.30;;;18.20;78.00;;;;;;5031306;28;20076;-74
2021/06/20 07:13:21;;;;;;;0.60;0.30;;;18.20;77.40;;;;;;5032910;28;20060;-74
2021/06/20 07:15:47;;;;;;;0.40;0.20;;;18.20;77.40;;;;;;5022116;28;20556;-74
2021/06/20 07:18:14;;;;;;;0.57;0.30;;;18.30;77.70;;;;;;5027788;28;20056;-73
2021/06/20 07:20:40;;;;;;;0.50;0.30;;;18.40;76.80;;;;;;5018466;28;20025;-73
2021/06/20 07:23:06;;;;;;;0.55;0.30;;;18.50;76.50;;;;;;5030174;28;20033;-74
2021/06/20 07:25:31;;;;;;;0.50;0.30;;;18.60;76.20;;;;;;5029507;28;20045;-74
2021/06/20 07:27:57;;;;;;;0.50;0.30;;;18.80;76.00;;;;;;5026597;28;20105;-74
2021/06/20 07:30:23;;;;;;;0.55;0.30;;;18.80;75.40;;;;;;5028446;28;20076;-74
2021/06/20 07:32:49;;;;;;;0.20;0.17;;;18.80;75.30;;;;;;5024640;28;20033;-74
2021/06/20 07:35:16;;;;;;;0.50;0.30;;;18.90;75.40;;;;;;5021778;28;20025;-74
2021/06/20 07:37:41;;;;;;;0.50;0.22;;;19.00;75.00;;;;;;5032703;28;20104;-74
2021/06/20 07:40:11;;;;;;;0.60;0.30;;;19.10;74.20;;;;;;5022167;28;20033;-77
2021/06/20 07:42:37;;;;;;;0.55;0.25;;;19.10;74.40;;;;;;5032608;28;20033;-74
2021/06/20 07:45:05;;;;;;;0.40;0.20;;;19.10;74.60;;;;;;5018149;28;20037;-74
2021/06/20 07:47:30;;;;;;;0.32;0.22;;;18.90;75.00;;;;;;5018805;28;20109;-75
2021/06/20 07:49:56;;;;;;;0.80;0.30;;;18.80;75.60;;;;;;5028959;28;20068;-74
2021/06/20 07:52:22;;;;;;;0.38;0.20;;;18.80;75.90;;;;;;5036668;28;20036;-73
2021/06/20 07:54:50;;;;;;;0.52;0.30;;;18.90;75.80;;;;;;5030375;28;20013;-73
2021/06/20 07:57:18;;;;;;;0.70;0.30;;;18.80;76.00;;;;;;5035510;28;20045;-74
2021/06/20 07:59:45;;;;;;;0.73;0.32;;;18.70;75.70;;;;;;5034965;28;20024;-74
2021/06/20 08:02:11;;;;;;;0.70;0.30;;;18.60;76.00;;;;;;5034911;28;20493;-73
2021/06/20 08:04:36;;;;;;;0.45;0.28;;;18.60;76.60;;;;;;5032902;28;20381;-74
2021/06/20 08:07:02;;;;;;;0.50;0.28;;;18.80;76.00;;;;;;5035829;28;20081;-74
2021/06/20 08:09:28;;;;;;;0.30;0.20;;;18.70;76.30;;;;;;5034666;28;20033;-74
2021/06/20 08:11:53;;;;;;;0.47;0.20;;;18.60;76.80;;;;;;5033042;28;20384;-73
2021/06/20 08:14:19;;;;;;;0.50;0.30;;;18.80;76.80;;;;;;5028884;28;20396;-74
2021/06/20 08:16:45;;;;;;;0.43;0.30;;;18.80;76.10;;;;;;5031786;28;20550;-74
2021/06/20 08:19:11;;;;;;;0.35;0.25;;;18.90;76.30;;;;;;5043373;28;20061;-74
2021/06/20 08:21:36;;;;;;;0.38;0.20;;;19.00;75.90;;;;;;5029126;28;20080;-74
2021/06/20 08:24:02;;;;;;;0.68;0.30;;;18.90;75.80;;;;;;5035706;28;20032;-74
2021/06/20 08:26:28;;;;;;;0.40;0.20;;;18.90;75.90;;;;;;5029331;28;20112;-73
2021/06/20 08:28:54;;;;;;;0.65;0.30;;;18.90;75.50;;;;;;5017241;28;20033;-73
2021/06/20 08:31:19;;;;;;;0.40;0.20;;;18.90;75.80;;;;;;5016650;28;20032;-72
2021/06/20 08:33:45;;;;;;;0.77;0.30;;;19.00;76.10;;;;;;5025565;28;20069;-76
2021/06/20 08:36:11;;;;;;;0.63;0.38;;;19.30;75.40;;;;;;5024728;28;20017;-74
2021/06/20 08:38:37;;;;;;;0.47;0.30;;;19.50;73.80;;;;;;5029797;28;20417;-75
2021/06/20 08:41:03;;;;;;;0.30;0.20;;;19.80;73.50;;;;;;5034142;28;20817;-76
2021/06/20 08:43:29;;;;;;;0.40;0.20;;;19.90;72.30;;;;;;5031408;28;20408;-79
2021/06/20 08:45:56;;;;;;;0.30;0.10;;;20.40;72.50;;;;;;5032056;28;20017;-75
2021/06/20 08:48:21;;;;;;;0.52;0.30;;;21.20;70.70;;;;;;5025529;28;20125;-77
2021/06/20 08:50:51;;;;;;;0.50;0.20;;;21.00;69.50;;;;;;5029915;28;20049;-75
2021/06/20 08:53:18;;;;;;;;;;;20.90;69.60;;;;;;5036775;28;20395;-76
2021/06/20 08:55:44;;;;;;;0.50;0.20;;;21.00;70.10;;;;;;5031751;28;19916;-75
2021/06/20 08:58:30;;;;;;;0.22;0.20;;;20.90;69.80;;;;;;5036826;28;20033;-76
2021/06/20 09:00:56;;;;;;;0.40;0.20;;;21.00;70.20;;;;;;5032521;28;20021;-75
2021/06/20 09:03:23;;;;;;;0.63;0.25;;;21.30;69.90;;;;;;5026838;28;20491;-77
2021/06/20 09:06:03;;;;;;;0.25;0.20;;;21.60;69.60;;;;;;5015408;28;20489;-78
2021/06/20 09:08:30;;;;;;;0.25;0.20;;;21.70;66.70;;;;;;5015999;28;20034;-79
2021/06/20 09:10:58;;;;;;;0.50;0.20;;;21.70;68.60;;;;;;5026739;28;20025;-79
2021/06/20 09:13:32;;;;;;;0.50;0.25;;;21.30;67.00;;;;;;5033424;28;20076;-77
2021/06/20 09:16:03;;;;;;;0.30;0.13;;;21.10;67.80;;;;;;5034314;28;20029;-77
2021/06/20 09:18:29;;;;;;;0.20;0.13;;;20.80;68.80;;;;;;5050487;28;20036;-76
2021/06/20 09:20:55;;;;;;;0.40;0.20;;;20.90;69.00;;;;;;5054323;28;20025;-75
2021/06/20 09:23:21;;;;;;;0.28;0.10;;;20.80;67.50;;;;;;5046335;28;20056;-78
2021/06/20 09:26:02;;;;;;;0.45;0.20;;;20.80;68.00;;;;;;5052958;28;20034;-77
2021/06/20 09:28:32;;;;;;;0.38;0.20;;;20.80;69.40;;;;;;5035844;28;20516;-79
2021/06/20 09:31:02;;;;;;;0.50;0.20;;;20.60;68.70;;;;;;5029684;28;20048;-77
2021/06/20 09:33:32;;;;;;;0.32;0.20;;;20.60;69.80;;;;;;5027276;28;20071;-77
2021/06/20 09:35:59;;;;;;;0.30;0.20;;;20.50;70.20;;;;;;5030930;28;20025;-76
2021/06/20 09:38:34;;;;;;;0.30;0.20;;;20.60;69.60;;;;;;5030554;28;20041;-77
2021/06/20 09:41:00;;;;;;;0.30;0.20;;;20.40;69.70;;;;;;5031179;28;20025;-76
2021/06/20 09:43:26;;;;;;;0.30;0.20;;;20.30;69.70;;;;;;5030366;28;20112;-76
2021/06/20 09:45:52;;;;;;;0.17;0.13;;;20.20;70.40;;;;;;5024548;28;20399;-76
2021/06/20 09:48:22;;;;;;;0.68;0.20;;;20.20;70.60;;;;;;5023209;28;20057;-77
2021/06/20 09:50:48;;;;;;;0.30;0.20;;;20.20;70.10;;;;;;5029507;28;20087;-77
2021/06/20 09:53:14;;;;;;;0.30;0.20;;;20.10;70.60;;;;;;5020798;28;20112;-76
2021/06/20 09:55:39;;;;;;;0.40;0.20;;;20.30;70.40;;;;;;5017393;28;20034;-76
2021/06/20 09:58:05;;;;;;;0.20;0.20;;;20.50;69.50;;;;;;5022870;28;20126;-77
2021/06/20 10:00:42;;;;;;;0.50;0.20;;;20.80;69.90;;;;;;5031972;28;20109;-76
2021/06/20 10:03:21;;;;;;;0.38;0.20;;;21.00;68.80;;;;;;5034603;28;20503;-77
2021/06/20 10:05:50;;;;;;;0.30;0.20;;;21.20;68.20;;;;;;5035103;28;20053;-77
2021/06/20 10:08:16;;;;;;;0.13;0.10;;;21.30;68.10;;;;;;5035095;28;20064;-77
2021/06/20 10:10:41;;;;;;;0.30;0.20;;;21.10;68.40;;;;;;5030722;28;20033;-78
2021/06/20 10:13:08;;;;;;;0.38;0.20;;;21.00;69.20;;;;;;5026006;28;20028;-77
2021/06/20 10:15:34;;;;;;;0.20;0.10;;;20.90;68.70;;;;;;5043501;28;20060;-81
2021/06/20 10:18:04;;;;;;;0.52;0.28;;;21.00;67.70;;;;;;5027527;28;20025;-79
2021/06/20 10:20:34;;;;;;;0.32;0.20;;;21.30;68.80;;;;;;5015381;28;20108;-87
2021/06/20 10:23:01;;;;;;;0.35;0.20;;;21.70;67.20;;;;;;5032083;28;20754;-82
2021/06/20 10:25:31;;;;;;;0.10;0.10;;;21.80;64.90;;;;;;5033774;28;20021;-82
2021/06/20 10:28:05;;;;;;;0.45;0.20;;;22.00;64.90;;;;;;5054322;28;20021;-81
2021/06/20 10:30:34;;;;;;;0.40;0.20;;;22.40;63.00;;;;;;5036530;28;20030;-82
2021/06/20 10:33:06;;;;;;;0.38;0.20;;;23.10;62.00;;;;;;5015973;28;20022;-82
2021/06/20 10:35:32;;;;;;;0.50;0.25;;;23.50;59.30;;;;;;5015305;28;20030;-82
2021/06/20 10:37:58;;;;;;;0.20;0.10;;;23.70;60.10;;;;;;5015647;28;20040;-82
2021/06/20 10:40:45;;;;;;;0.43;0.10;;;23.80;58.90;;;;;;5015479;28;20030;-82
2021/06/20 10:43:19;;;;;;;0.43;0.20;;;23.40;59.00;;;;;;5015175;28;20038;-81
2021/06/20 10:45:46;;;;;;;0.47;0.20;;;24.10;60.10;;;;;;5014354;28;20085;-82
2021/06/20 10:48:19;;;;;;;0.13;0.10;;;23.90;57.70;;;;;;5015409;28;20013;-82
2021/06/20 10:50:49;;;;;;;0.10;0.10;;;24.00;57.40;;;;;;5015532;28;20432;-82
2021/06/20 10:53:15;;;;;;;;;;;24.00;58.50;;;;;;5015976;28;20030;-82
2021/06/20 10:55:50;;;;;;;0.30;0.20;;;24.40;58.20;;;;;;5015315;28;19905;-82
2021/06/20 10:58:46;;;;;;;0.10;0.10;;;24.50;54.50;;;;;;5016147;28;20030;-82
2021/06/20 11:01:14;;;;;;;0.17;0.10;;;24.40;54.80;;;;;;5037630;28;20044;-82
2021/06/20 11:03:53;;;;;;;0.40;0.20;;;24.60;54.60;;;;;;5043310;28;20036;-82
2021/06/20 11:06:25;;;;;;;0.27;0.20;;;24.70;54.80;;;;;;5058822;28;20092;-82
2021/06/20 11:08:56;;;;;;;0.65;0.10;;;24.60;55.50;;;;;;5045019;28;21205;-82
2021/06/20 11:11:48;;;;;;;0.15;0.10;;;24.80;56.10;;;;;;5019297;28;20084;-82
2021/06/20 11:14:14;;;;;;;0.38;0.10;;;24.90;55.00;;;;;;5018583;28;20041;-82
2021/06/20 11:16:50;;;;;;;0.35;0.10;;;24.60;53.40;;;;;;5019260;28;20065;-82
2021/06/20 11:19:28;;;;;;;0.10;0.10;;;24.50;55.30;;;;;;5018855;28;20044;-82
2021/06/20 11:22:01;;;;;;;0.22;0.10;;;24.70;56.80;;;;;;5018754;28;20040;-82
2021/06/20 11:24:31;;;;;;;0.20;0.10;;;24.40;56.40;;;;;;5033133;28;20021;-82
2021/06/20 11:26:59;;;;;;;0.32;0.20;;;24.40;56.50;;;;;;5035598;28;20037;-82
2021/06/20 11:29:38;;;;;;;0.28;0.20;;;24.40;56.00;;;;;;5017649;28;20022;-82
2021/06/20 11:32:05;;;;;;;0.25;0.10;;;24.60;56.70;;;;;;5018963;28;20120;-82
2021/06/20 11:34:30;;;;;;;0.30;0.10;;;24.70;56.00;;;;;;5018689;28;20156;-82
2021/06/20 11:36:56;;;;;;;0.32;0.10;;;24.70;55.10;;;;;;5034048;28;20064;-82
2021/06/20 11:39:22;;;;;;;0.10;0.10;;;24.70;55.00;;;;;;5018937;28;20125;-83
2021/06/20 11:41:52;;;;;;;0.10;0.10;;;24.80;54.40;;;;;;5018493;28;20070;-82
2021/06/20 11:44:18;;;;;;;0.10;0.10;;;24.80;55.50;;;;;;5018760;28;20018;-82
2021/06/20 11:46:46;;;;;;;0.10;0.10;;;24.90;52.40;;;;;;5018652;28;20026;-82
2021/06/20 11:49:17;;;;;;;0.10;0.10;;;25.00;53.00;;;;;;5018306;28;20030;-82
2021/06/20 11:51:52;;;;;;;0.32;0.10;;;25.20;53.10;;;;;;5018647;28;20034;-82
2021/06/20 11:54:24;;;;;;;0.00;0.00;;;24.90;53.00;;;;;;5018551;28;20029;-82
2021/06/20 11:56:55;;;;;;;0.10;0.10;;;24.60;52.30;;;;;;5018367;28;20076;-82
2021/06/20 11:59:41;;;;;;;0.20;0.10;;;24.40;53.20;;;;;;5027320;28;20026;-82
2021/06/20 12:02:12;;;;;;;0.20;0.10;;;24.40;52.90;;;;;;5038040;28;20033;-82
2021/06/20 12:04:42;;;;;;;0.10;0.10;;;24.30;52.20;;;;;;5017901;28;20026;-83
2021/06/20 12:07:09;;;;;;;0.22;0.10;;;24.70;53.80;;;;;;5016740;28;20049;-82
2021/06/20 12:09:36;;;;;;;0.10;0.10;;;24.90;53.90;;;;;;5016239;28;20015;-82
2021/06/20 12:12:06;;;;;;;0.10;0.10;;;25.40;52.80;;;;;;5016352;28;20041;-82
2021/06/20 12:14:34;;;;;;;0.10;0.10;;;25.40;50.60;;;;;;5018123;28;20482;-82
2021/06/20 12:17:00;;;;;;;0.10;0.10;;;25.40;50.80;;;;;;5018092;28;20031;-82
2021/06/20 12:19:31;;;;;;;0.10;0.10;;;25.60;50.90;;;;;;5017856;28;20061;-82
2021/06/20 12:22:11;;;;;;;0.00;0.00;;;25.60;51.90;;;;;;5017765;28;20042;-82
2021/06/20 12:24:49;;;;;;;0.28;0.10;;;25.20;51.30;;;;;;5033628;28;20021;-82
2021/06/20 12:27:32;;;;;;;0.10;0.10;;;24.90;51.80;;;;;;5036256;28;20029;-83
2021/06/20 12:29:59;;;;;;;0.30;0.10;;;24.80;51.80;;;;;;5032540;28;20033;-82
2021/06/20 12:32:25;;;;;;;0.13;0.10;;;24.70;52.80;;;;;;5017930;28;20057;-82
2021/06/20 12:34:53;;;;;;;0.10;0.10;;;24.70;52.60;;;;;;5017305;28;20476;-82
2021/06/20 12:37:21;;;;;;;0.20;0.10;;;24.80;52.60;;;;;;5016958;28;20034;-82
2021/06/20 12:39:49;;;;;;;0.20;0.10;;;25.00;53.10;;;;;;5033209;28;20025;-82
2021/06/20 12:42:15;;;;;;;0.10;0.10;;;25.00;52.70;;;;;;5017829;28;20391;-82
2021/06/20 12:44:52;;;;;;;0.00;0.00;;;24.90;52.60;;;;;;5017597;28;20026;-82
2021/06/20 12:47:29;;;;;;;0.10;0.10;;;24.80;54.80;;;;;;5017388;28;20041;-81
2021/06/20 12:49:54;;;;;;;0.35;0.10;;;24.60;53.30;;;;;;5017479;28;20026;-82
2021/06/20 12:52:29;;;;;;;0.10;0.10;;;24.60;54.90;;;;;;5017327;28;20113;-82
2021/06/20 12:54:57;;;;;;;0.10;0.10;;;24.40;52.90;;;;;;5017481;28;20125;-82